sensor_id;sensor_type;location;lat;lon;timestamp;P1;durP1;ratioP1;P2;durP2;ratioP2
67602;SDS011;54417;47.454;18.918;2022-09-30T00:03:41;12.25;;;8.93;;
67602;SDS011;54417;47.454;18.918;2022-09-30T00:09:04;13.75;;;8.50;;
67602;SDS011;54417;47.454;18.918;2022-09-30T00:14:28;15.27;;;9.20;;
67602;SDS011;54417;47.454;18.918;2022-09-30T00:19:53;11.15;;;8.57;;
67602;SDS011;54417;47.454;18.918;2022-09-30T00:25:17;13.90;;;8.90;;
67602;SDS011;54417;47.454;18.918;2022-09-30T00:30:41;13.57;;;9.00;;
67602;SDS011;54417;47.454;18.918;2022-09-30T00:36:06;17.85;;;9.65;;
67602;SDS011;54417;47.454;18.918;2022-09-30T00:41:30;16.77;;;9.43;;
67602;SDS011;54417;47.454;18.918;2022-09-30T00:46:54;14.27;;;9.07;;
67602;SDS011;54417;47.454;18.918;2022-09-30T00:52:20;12.23;;;8.88;;
67602;SDS011;54417;47.454;18.918;2022-09-30T00:57:43;13.25;;;8.48;;
67602;SDS011;54417;47.454;18.918;2022-09-30T01:03:07;11.10;;;8.68;;
67602;SDS011;54417;47.454;18.918;2022-09-30T01:08:34;13.82;;;8.70;;
67602;SDS011;54417;47.454;18.918;2022-09-30T01:14:00;18.77;;;9.55;;
67602;SDS011;54417;47.454;18.918;2022-09-30T01:19:31;20.00;;;10.38;;
67602;SDS011;54417;47.454;18.918;2022-09-30T01:25:20;15.95;;;10.43;;
67602;SDS011;54417;47.454;18.918;2022-09-30T01:31:02;19.02;;;11.25;;
67602;SDS011;54417;47.454;18.918;2022-09-30T01:36:37;15.45;;;10.93;;
67602;SDS011;54417;47.454;18.918;2022-09-30T01:42:12;16.70;;;11.63;;
67602;SDS011;54417;47.454;18.918;2022-09-30T01:47:45;15.43;;;10.82;;
67602;SDS011;54417;47.454;18.918;2022-09-30T01:53:14;14.45;;;9.40;;
67602;SDS011;54417;47.454;18.918;2022-09-30T01:58:44;15.80;;;9.83;;
67602;SDS011;54417;47.454;18.918;2022-09-30T02:04:16;11.63;;;9.00;;
67602;SDS011;54417;47.454;18.918;2022-09-30T02:09:44;14.25;;;9.23;;
67602;SDS011;54417;47.454;18.918;2022-09-30T02:15:12;13.05;;;8.10;;
67602;SDS011;54417;47.454;18.918;2022-09-30T02:20:41;9.80;;;7.25;;
67602;SDS011;54417;47.454;18.918;2022-09-30T02:26:07;10.48;;;8.15;;
67602;SDS011;54417;47.454;18.918;2022-09-30T02:31:36;11.88;;;9.10;;
67602;SDS011;54417;47.454;18.918;2022-09-30T02:37:04;15.45;;;10.90;;
67602;SDS011;54417;47.454;18.918;2022-09-30T02:42:32;16.58;;;10.93;;
67602;SDS011;54417;47.454;18.918;2022-09-30T02:48:02;11.07;;;8.23;;
67602;SDS011;54417;47.454;18.918;2022-09-30T02:53:34;11.10;;;7.43;;
67602;SDS011;54417;47.454;18.918;2022-09-30T02:59:04;8.15;;;5.63;;
67602;SDS011;54417;47.454;18.918;2022-09-30T03:04:29;6.88;;;4.90;;
67602;SDS011;54417;47.454;18.918;2022-09-30T03:09:58;5.78;;;4.72;;
67602;SDS011;54417;47.454;18.918;2022-09-30T03:15:24;9.10;;;5.85;;
67602;SDS011;54417;47.454;18.918;2022-09-30T03:21:01;8.82;;;5.28;;
67602;SDS011;54417;47.454;18.918;2022-09-30T03:26:35;9.90;;;6.20;;
67602;SDS011;54417;47.454;18.918;2022-09-30T03:32:05;12.88;;;9.40;;
67602;SDS011;54417;47.454;18.918;2022-09-30T03:37:40;11.60;;;8.98;;
67602;SDS011;54417;47.454;18.918;2022-09-30T03:43:11;10.90;;;7.55;;
67602;SDS011;54417;47.454;18.918;2022-09-30T03:48:42;10.55;;;7.50;;
67602;SDS011;54417;47.454;18.918;2022-09-30T03:54:08;9.38;;;7.05;;
67602;SDS011;54417;47.454;18.918;2022-09-30T03:59:35;10.52;;;6.82;;
67602;SDS011;54417;47.454;18.918;2022-09-30T04:04:58;7.18;;;5.93;;
67602;SDS011;54417;47.454;18.918;2022-09-30T04:10:22;7.82;;;5.93;;
67602;SDS011;54417;47.454;18.918;2022-09-30T04:15:53;6.20;;;4.82;;
67602;SDS011;54417;47.454;18.918;2022-09-30T04:21:17;9.60;;;5.13;;
67602;SDS011;54417;47.454;18.918;2022-09-30T04:26:40;9.13;;;5.90;;
67602;SDS011;54417;47.454;18.918;2022-09-30T04:32:05;9.00;;;6.88;;
67602;SDS011;54417;47.454;18.918;2022-09-30T04:37:29;15.20;;;8.10;;
67602;SDS011;54417;47.454;18.918;2022-09-30T04:42:54;12.02;;;7.50;;
67602;SDS011;54417;47.454;18.918;2022-09-30T04:48:20;11.90;;;8.52;;
67602;SDS011;54417;47.454;18.918;2022-09-30T04:53:44;11.20;;;8.68;;
67602;SDS011;54417;47.454;18.918;2022-09-30T04:59:08;15.05;;;10.38;;
67602;SDS011;54417;47.454;18.918;2022-09-30T05:04:34;16.20;;;10.27;;
67602;SDS011;54417;47.454;18.918;2022-09-30T05:09:57;12.30;;;9.70;;
67602;SDS011;54417;47.454;18.918;2022-09-30T05:15:21;17.13;;;9.88;;
67602;SDS011;54417;47.454;18.918;2022-09-30T05:20:48;13.40;;;10.27;;
67602;SDS011;54417;47.454;18.918;2022-09-30T05:26:12;12.82;;;9.90;;
67602;SDS011;54417;47.454;18.918;2022-09-30T05:31:35;12.38;;;9.73;;
67602;SDS011;54417;47.454;18.918;2022-09-30T05:37:01;15.68;;;10.25;;
67602;SDS011;54417;47.454;18.918;2022-09-30T05:42:24;13.48;;;10.20;;
67602;SDS011;54417;47.454;18.918;2022-09-30T05:47:49;13.65;;;10.60;;
67602;SDS011;54417;47.454;18.918;2022-09-30T05:53:15;16.65;;;11.63;;
67602;SDS011;54417;47.454;18.918;2022-09-30T05:58:41;15.43;;;11.20;;
67602;SDS011;54417;47.454;18.918;2022-09-30T06:04:04;13.52;;;9.95;;
67602;SDS011;54417;47.454;18.918;2022-09-30T06:09:29;15.30;;;10.10;;
67602;SDS011;54417;47.454;18.918;2022-09-30T06:14:53;17.75;;;11.07;;
67602;SDS011;54417;47.454;18.918;2022-09-30T06:20:17;12.98;;;10.23;;
67602;SDS011;54417;47.454;18.918;2022-09-30T06:25:42;12.23;;;10.43;;
67602;SDS011;54417;47.454;18.918;2022-09-30T06:31:07;14.30;;;10.15;;
67602;SDS011;54417;47.454;18.918;2022-09-30T06:36:32;17.60;;;10.88;;
67602;SDS011;54417;47.454;18.918;2022-09-30T06:41:57;19.25;;;11.70;;
67602;SDS011;54417;47.454;18.918;2022-09-30T06:47:21;15.85;;;10.77;;
67602;SDS011;54417;47.454;18.918;2022-09-30T06:52:47;15.05;;;11.02;;
67602;SDS011;54417;47.454;18.918;2022-09-30T06:58:14;15.15;;;11.68;;
67602;SDS011;54417;47.454;18.918;2022-09-30T07:03:38;17.08;;;12.25;;
67602;SDS011;54417;47.454;18.918;2022-09-30T07:09:02;12.55;;;9.88;;
67602;SDS011;54417;47.454;18.918;2022-09-30T07:14:27;10.45;;;8.40;;
67602;SDS011;54417;47.454;18.918;2022-09-30T07:19:53;11.52;;;10.15;;
67602;SDS011;54417;47.454;18.918;2022-09-30T07:25:17;12.02;;;8.13;;
67602;SDS011;54417;47.454;18.918;2022-09-30T07:30:42;9.85;;;7.80;;
67602;SDS011;54417;47.454;18.918;2022-09-30T07:36:06;9.07;;;6.97;;
67602;SDS011;54417;47.454;18.918;2022-09-30T07:41:31;10.98;;;7.68;;
67602;SDS011;54417;47.454;18.918;2022-09-30T07:46:59;11.55;;;7.43;;
67602;SDS011;54417;47.454;18.918;2022-09-30T07:52:23;9.85;;;6.60;;
67602;SDS011;54417;47.454;18.918;2022-09-30T07:57:47;17.67;;;7.57;;
67602;SDS011;54417;47.454;18.918;2022-09-30T08:03:12;9.00;;;8.05;;
67602;SDS011;54417;47.454;18.918;2022-09-30T08:08:37;9.52;;;7.78;;
67602;SDS011;54417;47.454;18.918;2022-09-30T08:14:00;12.00;;;8.88;;
67602;SDS011;54417;47.454;18.918;2022-09-30T08:19:26;11.77;;;9.07;;
67602;SDS011;54417;47.454;18.918;2022-09-30T08:24:51;10.88;;;9.48;;
67602;SDS011;54417;47.454;18.918;2022-09-30T08:30:15;10.38;;;8.95;;
67602;SDS011;54417;47.454;18.918;2022-09-30T08:35:40;12.13;;;10.18;;
67602;SDS011;54417;47.454;18.918;2022-09-30T08:41:08;13.07;;;11.68;;
67602;SDS011;54417;47.454;18.918;2022-09-30T08:46:42;11.60;;;10.27;;
67602;SDS011;54417;47.454;18.918;2022-09-30T08:52:12;10.52;;;9.25;;
67602;SDS011;54417;47.454;18.918;2022-09-30T08:57:52;8.45;;;7.40;;
67602;SDS011;54417;47.454;18.918;2022-09-30T09:03:18;9.18;;;6.75;;
67602;SDS011;54417;47.454;18.918;2022-09-30T09:08:49;7.07;;;6.00;;
67602;SDS011;54417;47.454;18.918;2022-09-30T09:14:27;5.30;;;4.80;;
67602;SDS011;54417;47.454;18.918;2022-09-30T09:20:02;5.03;;;4.63;;
67602;SDS011;54417;47.454;18.918;2022-09-30T09:25:35;5.90;;;4.07;;
67602;SDS011;54417;47.454;18.918;2022-09-30T09:30:58;4.15;;;3.67;;
67602;SDS011;54417;47.454;18.918;2022-09-30T09:36:25;4.00;;;3.60;;
67602;SDS011;54417;47.454;18.918;2022-09-30T09:42:00;2.50;;;2.15;;
67602;SDS011;54417;47.454;18.918;2022-09-30T09:47:34;3.50;;;2.10;;
67602;SDS011;54417;47.454;18.918;2022-09-30T09:53:10;2.80;;;2.45;;
67602;SDS011;54417;47.454;18.918;2022-09-30T10:04:27;4.40;;;2.80;;
67602;SDS011;54417;47.454;18.918;2022-09-30T10:10:05;2.95;;;2.70;;
67602;SDS011;54417;47.454;18.918;2022-09-30T10:15:32;2.78;;;2.17;;
67602;SDS011;54417;47.454;18.918;2022-09-30T10:20:59;3.88;;;2.03;;
67602;SDS011;54417;47.454;18.918;2022-09-30T10:26:25;2.33;;;1.80;;
67602;SDS011;54417;47.454;18.918;2022-09-30T10:31:51;1.67;;;1.58;;
67602;SDS011;54417;47.454;18.918;2022-09-30T10:37:22;3.97;;;1.52;;
67602;SDS011;54417;47.454;18.918;2022-09-30T10:42:46;1.33;;;1.20;;
67602;SDS011;54417;47.454;18.918;2022-09-30T10:48:15;1.67;;;1.10;;
67602;SDS011;54417;47.454;18.918;2022-09-30T10:53:41;1.58;;;1.30;;
67602;SDS011;54417;47.454;18.918;2022-09-30T10:59:10;1.55;;;1.30;;
67602;SDS011;54417;47.454;18.918;2022-09-30T11:04:43;0.88;;;0.88;;
67602;SDS011;54417;47.454;18.918;2022-09-30T11:10:17;1.30;;;1.20;;
67602;SDS011;54417;47.454;18.918;2022-09-30T11:15:55;1.17;;;1.08;;
67602;SDS011;54417;47.454;18.918;2022-09-30T11:21:25;4.70;;;0.57;;
67602;SDS011;54417;47.454;18.918;2022-09-30T11:26:57;1.10;;;1.00;;
67602;SDS011;54417;47.454;18.918;2022-09-30T11:32:29;1.15;;;0.88;;
67602;SDS011;54417;47.454;18.918;2022-09-30T11:38:08;1.70;;;1.30;;
67602;SDS011;54417;47.454;18.918;2022-09-30T11:43:37;0.80;;;0.80;;
67602;SDS011;54417;47.454;18.918;2022-09-30T11:49:11;2.35;;;0.80;;
67602;SDS011;54417;47.454;18.918;2022-09-30T11:54:52;1.23;;;1.13;;
67602;SDS011;54417;47.454;18.918;2022-09-30T12:00:24;0.68;;;0.68;;
67602;SDS011;54417;47.454;18.918;2022-09-30T12:05:48;1.55;;;0.90;;
67602;SDS011;54417;47.454;18.918;2022-09-30T12:11:19;1.75;;;0.60;;
67602;SDS011;54417;47.454;18.918;2022-09-30T12:16:51;1.25;;;1.05;;
67602;SDS011;54417;47.454;18.918;2022-09-30T12:22:19;0.80;;;0.80;;
67602;SDS011;54417;47.454;18.918;2022-09-30T12:27:48;0.90;;;0.90;;
67602;SDS011;54417;47.454;18.918;2022-09-30T12:33:20;1.17;;;1.08;;
67602;SDS011;54417;47.454;18.918;2022-09-30T12:45:08;1.40;;;1.30;;
67602;SDS011;54417;47.454;18.918;2022-09-30T12:50:55;1.60;;;1.45;;
67602;SDS011;54417;47.454;18.918;2022-09-30T12:56:19;1.30;;;1.20;;
67602;SDS011;54417;47.454;18.918;2022-09-30T13:01:52;2.67;;;1.33;;
67602;SDS011;54417;47.454;18.918;2022-09-30T13:07:17;1.92;;;1.63;;
67602;SDS011;54417;47.454;18.918;2022-09-30T13:12:43;2.10;;;1.55;;
67602;SDS011;54417;47.454;18.918;2022-09-30T13:24:10;2.38;;;2.17;;
67602;SDS011;54417;47.454;18.918;2022-09-30T13:29:35;3.88;;;2.15;;
67602;SDS011;54417;47.454;18.918;2022-09-30T13:35:01;2.13;;;1.92;;
67602;SDS011;54417;47.454;18.918;2022-09-30T13:40:29;3.45;;;2.00;;
67602;SDS011;54417;47.454;18.918;2022-09-30T13:46:16;1.80;;;1.70;;
67602;SDS011;54417;47.454;18.918;2022-09-30T13:51:49;2.33;;;2.13;;
67602;SDS011;54417;47.454;18.918;2022-09-30T13:57:18;1.95;;;1.85;;
67602;SDS011;54417;47.454;18.918;2022-09-30T14:08:46;1.77;;;1.50;;
67602;SDS011;54417;47.454;18.918;2022-09-30T14:14:37;1.65;;;1.40;;
67602;SDS011;54417;47.454;18.918;2022-09-30T14:20:19;1.40;;;1.30;;
67602;SDS011;54417;47.454;18.918;2022-09-30T14:25:52;2.38;;;1.55;;
67602;SDS011;54417;47.454;18.918;2022-09-30T14:31:25;1.65;;;1.55;;
67602;SDS011;54417;47.454;18.918;2022-09-30T14:36:50;2.85;;;1.60;;
67602;SDS011;54417;47.454;18.918;2022-09-30T14:42:17;1.50;;;1.40;;
67602;SDS011;54417;47.454;18.918;2022-09-30T14:47:52;2.95;;;2.30;;
67602;SDS011;54417;47.454;18.918;2022-09-30T14:53:22;1.35;;;1.20;;
67602;SDS011;54417;47.454;18.918;2022-09-30T14:58:48;1.38;;;1.27;;
67602;SDS011;54417;47.454;18.918;2022-09-30T15:04:15;3.25;;;2.20;;
67602;SDS011;54417;47.454;18.918;2022-09-30T15:09:42;3.80;;;1.92;;
67602;SDS011;54417;47.454;18.918;2022-09-30T15:15:20;2.92;;;1.73;;
67602;SDS011;54417;47.454;18.918;2022-09-30T15:20:51;9.13;;;4.95;;
67602;SDS011;54417;47.454;18.918;2022-09-30T15:26:16;9.73;;;4.10;;
67602;SDS011;54417;47.454;18.918;2022-09-30T15:31:42;2.97;;;2.25;;
67602;SDS011;54417;47.454;18.918;2022-09-30T15:37:15;2.90;;;2.25;;
67602;SDS011;54417;47.454;18.918;2022-09-30T15:42:43;3.10;;;2.00;;
67602;SDS011;54417;47.454;18.918;2022-09-30T15:48:31;2.30;;;2.10;;
67602;SDS011;54417;47.454;18.918;2022-09-30T15:53:58;4.47;;;2.67;;
67602;SDS011;54417;47.454;18.918;2022-09-30T15:59:23;4.53;;;3.08;;
67602;SDS011;54417;47.454;18.918;2022-09-30T16:05:19;11.52;;;3.08;;
67602;SDS011;54417;47.454;18.918;2022-09-30T16:10:48;4.30;;;2.47;;
67602;SDS011;54417;47.454;18.918;2022-09-30T16:16:16;5.78;;;2.92;;
67602;SDS011;54417;47.454;18.918;2022-09-30T16:21:43;5.95;;;3.25;;
67602;SDS011;54417;47.454;18.918;2022-09-30T16:27:26;10.57;;;3.13;;
67602;SDS011;54417;47.454;18.918;2022-09-30T16:32:54;6.30;;;3.50;;
67602;SDS011;54417;47.454;18.918;2022-09-30T16:38:20;4.60;;;3.22;;
67602;SDS011;54417;47.454;18.918;2022-09-30T16:43:45;5.65;;;3.10;;
67602;SDS011;54417;47.454;18.918;2022-09-30T16:49:10;8.25;;;3.58;;
67602;SDS011;54417;47.454;18.918;2022-09-30T16:54:36;5.25;;;2.75;;
67602;SDS011;54417;47.454;18.918;2022-09-30T17:00:01;5.50;;;3.47;;
67602;SDS011;54417;47.454;18.918;2022-09-30T17:05:25;4.82;;;2.92;;
67602;SDS011;54417;47.454;18.918;2022-09-30T17:10:49;5.38;;;3.33;;
67602;SDS011;54417;47.454;18.918;2022-09-30T17:16:14;5.53;;;3.42;;
67602;SDS011;54417;47.454;18.918;2022-09-30T17:21:38;9.57;;;3.78;;
67602;SDS011;54417;47.454;18.918;2022-09-30T17:27:02;5.25;;;4.10;;
67602;SDS011;54417;47.454;18.918;2022-09-30T17:32:27;6.38;;;3.75;;
67602;SDS011;54417;47.454;18.918;2022-09-30T17:43:24;6.20;;;4.22;;
67602;SDS011;54417;47.454;18.918;2022-09-30T17:48:52;9.80;;;5.95;;
67602;SDS011;54417;47.454;18.918;2022-09-30T17:54:33;8.07;;;5.53;;
67602;SDS011;54417;47.454;18.918;2022-09-30T18:00:03;10.90;;;5.10;;
67602;SDS011;54417;47.454;18.918;2022-09-30T18:05:28;6.65;;;5.80;;
67602;SDS011;54417;47.454;18.918;2022-09-30T18:10:53;7.13;;;4.65;;
67602;SDS011;54417;47.454;18.918;2022-09-30T18:16:18;8.55;;;5.07;;
67602;SDS011;54417;47.454;18.918;2022-09-30T18:21:43;8.75;;;5.60;;
67602;SDS011;54417;47.454;18.918;2022-09-30T18:27:07;11.13;;;5.57;;
67602;SDS011;54417;47.454;18.918;2022-09-30T18:32:30;10.70;;;5.43;;
67602;SDS011;54417;47.454;18.918;2022-09-30T18:37:56;27.35;;;17.17;;
67602;SDS011;54417;47.454;18.918;2022-09-30T18:43:19;15.00;;;6.88;;
67602;SDS011;54417;47.454;18.918;2022-09-30T18:48:46;7.38;;;4.88;;
67602;SDS011;54417;47.454;18.918;2022-09-30T18:54:12;9.43;;;5.55;;
67602;SDS011;54417;47.454;18.918;2022-09-30T18:59:37;11.15;;;5.68;;
67602;SDS011;54417;47.454;18.918;2022-09-30T19:05:01;9.30;;;4.53;;
67602;SDS011;54417;47.454;18.918;2022-09-30T19:10:26;5.30;;;4.80;;
67602;SDS011;54417;47.454;18.918;2022-09-30T19:15:50;12.68;;;4.47;;
67602;SDS011;54417;47.454;18.918;2022-09-30T19:21:14;10.10;;;5.53;;
67602;SDS011;54417;47.454;18.918;2022-09-30T19:26:42;9.02;;;7.25;;
67602;SDS011;54417;47.454;18.918;2022-09-30T19:32:07;12.68;;;5.38;;
67602;SDS011;54417;47.454;18.918;2022-09-30T19:37:33;9.52;;;5.30;;
67602;SDS011;54417;47.454;18.918;2022-09-30T19:42:58;12.27;;;6.85;;
67602;SDS011;54417;47.454;18.918;2022-09-30T19:48:23;17.33;;;8.93;;
67602;SDS011;54417;47.454;18.918;2022-09-30T19:53:47;10.95;;;6.70;;
67602;SDS011;54417;47.454;18.918;2022-09-30T19:59:28;7.53;;;5.85;;
67602;SDS011;54417;47.454;18.918;2022-09-30T20:04:51;9.57;;;6.43;;
67602;SDS011;54417;47.454;18.918;2022-09-30T20:10:15;10.38;;;6.50;;
67602;SDS011;54417;47.454;18.918;2022-09-30T20:15:40;12.70;;;7.20;;
67602;SDS011;54417;47.454;18.918;2022-09-30T20:21:13;14.05;;;6.15;;
67602;SDS011;54417;47.454;18.918;2022-09-30T20:26:38;13.30;;;5.63;;
67602;SDS011;54417;47.454;18.918;2022-09-30T20:32:03;9.95;;;6.63;;
67602;SDS011;54417;47.454;18.918;2022-09-30T20:37:27;14.93;;;6.75;;
67602;SDS011;54417;47.454;18.918;2022-09-30T20:42:50;14.13;;;5.68;;
67602;SDS011;54417;47.454;18.918;2022-09-30T20:48:19;8.82;;;5.63;;
67602;SDS011;54417;47.454;18.918;2022-09-30T20:53:43;14.13;;;6.28;;
67602;SDS011;54417;47.454;18.918;2022-09-30T20:59:10;13.38;;;7.65;;
67602;SDS011;54417;47.454;18.918;2022-09-30T21:04:35;14.98;;;7.35;;
67602;SDS011;54417;47.454;18.918;2022-09-30T21:09:59;12.75;;;6.35;;
67602;SDS011;54417;47.454;18.918;2022-09-30T21:15:23;10.32;;;6.68;;
67602;SDS011;54417;47.454;18.918;2022-09-30T21:20:54;9.52;;;5.82;;
67602;SDS011;54417;47.454;18.918;2022-09-30T21:26:18;13.80;;;5.90;;
67602;SDS011;54417;47.454;18.918;2022-09-30T21:31:42;10.95;;;6.35;;
67602;SDS011;54417;47.454;18.918;2022-09-30T21:37:07;17.42;;;6.03;;
67602;SDS011;54417;47.454;18.918;2022-09-30T21:42:31;15.48;;;5.57;;
67602;SDS011;54417;47.454;18.918;2022-09-30T21:47:59;11.13;;;6.50;;
67602;SDS011;54417;47.454;18.918;2022-09-30T21:53:24;10.35;;;6.10;;
67602;SDS011;54417;47.454;18.918;2022-09-30T21:58:49;11.70;;;6.18;;
67602;SDS011;54417;47.454;18.918;2022-09-30T22:04:13;10.82;;;7.15;;
67602;SDS011;54417;47.454;18.918;2022-09-30T22:09:38;15.52;;;7.50;;
67602;SDS011;54417;47.454;18.918;2022-09-30T22:15:02;8.57;;;6.95;;
67602;SDS011;54417;47.454;18.918;2022-09-30T22:20:26;13.05;;;7.97;;
67602;SDS011;54417;47.454;18.918;2022-09-30T22:25:51;15.90;;;7.97;;
67602;SDS011;54417;47.454;18.918;2022-09-30T22:31:18;11.15;;;7.90;;
67602;SDS011;54417;47.454;18.918;2022-09-30T22:36:43;14.07;;;7.53;;
67602;SDS011;54417;47.454;18.918;2022-09-30T22:42:26;9.90;;;7.70;;
67602;SDS011;54417;47.454;18.918;2022-09-30T22:47:50;12.93;;;7.90;;
67602;SDS011;54417;47.454;18.918;2022-09-30T22:53:14;12.57;;;7.45;;
67602;SDS011;54417;47.454;18.918;2022-09-30T22:58:39;14.32;;;7.45;;
67602;SDS011;54417;47.454;18.918;2022-09-30T23:04:02;13.75;;;7.57;;
67602;SDS011;54417;47.454;18.918;2022-09-30T23:09:26;12.63;;;7.10;;
67602;SDS011;54417;47.454;18.918;2022-09-30T23:14:53;17.73;;;7.63;;
67602;SDS011;54417;47.454;18.918;2022-09-30T23:20:18;14.23;;;7.93;;
67602;SDS011;54417;47.454;18.918;2022-09-30T23:25:42;12.18;;;7.80;;
67602;SDS011;54417;47.454;18.918;2022-09-30T23:31:07;15.60;;;9.55;;
67602;SDS011;54417;47.454;18.918;2022-09-30T23:36:33;15.52;;;10.45;;
67602;SDS011;54417;47.454;18.918;2022-09-30T23:41:58;16.08;;;11.43;;
67602;SDS011;54417;47.454;18.918;2022-09-30T23:47:23;16.17;;;11.32;;
67602;SDS011;54417;47.454;18.918;2022-09-30T23:52:46;14.70;;;11.23;;
67602;SDS011;54417;47.454;18.918;2022-09-30T23:58:11;12.73;;;10.52;;
